Time;durP1;ratioP1;P1;durP2;ratioP2;P2;SDS_P1;SDS_P2;PMS_P1;PMS_P2;Temp;Humidity;BMP_temperature;BMP_pressure;BME280_temperature;BME280_humidity;BME280_pressure;Samples;Min_cycle;Max_cycle;Signal;HPM_P1;HPM_P2
2022/06/20 00:01:03;;;;;;;10.93;2.70;;;14.10;99.90;;;;;;5046281;28;20040;-69
2022/06/20 00:03:41;;;;;;;11.77;2.97;;;14.10;99.90;;;;;;5052565;28;20057;-69
2022/06/20 00:06:21;;;;;;;13.10;2.95;;;14.10;99.90;;;;;;5051493;28;20037;-70
2022/06/20 00:08:50;;;;;;;9.15;2.63;;;14.10;99.90;;;;;;5048537;28;20144;-69
2022/06/20 00:11:19;;;;;;;15.18;2.80;;;14.00;99.90;;;;;;5046729;28;20072;-68
2022/06/20 00:13:47;;;;;;;10.48;2.30;;;14.00;99.90;;;;;;5051709;28;20131;-69
2022/06/20 00:16:17;;;;;;;;;;;14.00;99.90;;;;;;5045485;28;20041;-69
2022/06/20 00:18:43;;;;;;;8.45;2.08;;;14.00;99.90;;;;;;5050878;28;19935;-68
2022/06/20 00:21:15;;;;;;;10.02;2.40;;;14.00;99.90;;;;;;5046283;28;20041;-68
2022/06/20 00:23:41;;;;;;;10.27;2.40;;;14.00;99.90;;;;;;5055592;28;20060;-69
2022/06/20 00:26:08;;;;;;;17.23;2.80;;;14.00;99.90;;;;;;5039399;28;20048;-69
2022/06/20 00:28:34;;;;;;;12.10;2.00;;;14.00;99.90;;;;;;5047117;28;20080;-68
2022/06/20 00:31:01;;;;;;;11.73;2.13;;;14.00;99.90;;;;;;5045047;28;20110;-68
2022/06/20 00:33:27;;;;;;;12.98;2.55;;;14.00;99.90;;;;;;5052765;28;20132;-70
2022/06/20 00:35:53;;;;;;;7.53;2.08;;;13.90;99.90;;;;;;5051179;28;20036;-68
2022/06/20 00:38:20;;;;;;;9.65;1.85;;;13.90;99.90;;;;;;5043938;28;20033;-69
2022/06/20 00:40:53;;;;;;;8.02;2.08;;;13.90;99.90;;;;;;5041115;28;20052;-68
2022/06/20 00:43:36;;;;;;;10.23;2.00;;;13.90;99.90;;;;;;5048592;28;20164;-69
2022/06/20 00:46:06;;;;;;;7.00;1.80;;;13.90;99.90;;;;;;5051305;28;20075;-69
2022/06/20 00:48:44;;;;;;;7.85;2.22;;;13.90;99.90;;;;;;5050741;28;20049;-70
2022/06/20 00:51:22;;;;;;;7.15;1.98;;;13.90;99.90;;;;;;5056061;28;20048;-69
2022/06/20 00:53:56;;;;;;;7.85;2.30;;;13.90;99.90;;;;;;5041418;28;20107;-70
2022/06/20 00:56:36;;;;;;;11.00;2.22;;;13.80;99.90;;;;;;5047543;28;20053;-69
2022/06/20 00:59:08;;;;;;;7.32;2.20;;;13.80;99.90;;;;;;5044523;28;20116;-68
2022/06/20 01:01:38;;;;;;;11.35;2.40;;;13.70;99.90;;;;;;5037872;28;20055;-68
2022/06/20 01:04:13;;;;;;;12.45;2.85;;;13.80;99.90;;;;;;5051057;28;20072;-69
2022/06/20 01:06:46;;;;;;;11.27;2.28;;;13.70;99.90;;;;;;5051594;28;20041;-69
2022/06/20 01:09:13;;;;;;;10.00;2.35;;;13.70;99.90;;;;;;5050412;28;20040;-69
2022/06/20 01:11:47;;;;;;;7.80;2.22;;;13.60;99.90;;;;;;5043645;28;20420;-69
2022/06/20 01:14:34;;;;;;;9.88;2.17;;;13.50;99.90;;;;;;5048591;28;20041;-70
2022/06/20 01:17:05;;;;;;;10.95;2.13;;;13.50;99.90;;;;;;5040873;28;20051;-69
2022/06/20 01:19:46;;;;;;;5.90;1.90;;;13.40;99.90;;;;;;5040531;28;20051;-69
2022/06/20 01:22:29;;;;;;;11.70;2.35;;;13.40;99.90;;;;;;5037486;28;20045;-68
2022/06/20 01:25:16;;;;;;;7.38;2.30;;;13.40;99.90;;;;;;5056693;28;20072;-69
2022/06/20 01:27:45;;;;;;;11.48;2.38;;;13.40;99.90;;;;;;5046340;28;20091;-69
2022/06/20 01:30:11;;;;;;;7.82;2.47;;;13.30;99.90;;;;;;5047363;28;20040;-69
2022/06/20 01:32:37;;;;;;;6.95;1.73;;;13.30;99.90;;;;;;5048374;28;20072;-69
2022/06/20 01:35:08;;;;;;;8.18;2.15;;;13.30;99.90;;;;;;5038788;28;20106;-69
2022/06/20 01:37:38;;;;;;;7.30;2.22;;;13.20;99.90;;;;;;5049507;28;20505;-69
2022/06/20 01:40:11;;;;;;;8.75;2.05;;;13.20;99.90;;;;;;5036782;28;20048;-69
2022/06/20 01:42:39;;;;;;;6.57;1.60;;;13.20;99.90;;;;;;5054293;28;20076;-69
2022/06/20 01:45:57;;;;;;;10.57;2.40;;;13.10;99.90;;;;;;5047216;28;20088;-69
2022/06/20 01:48:11;;;;;;;8.00;2.00;;;13.10;99.90;;;;;;5052810;28;20053;-69
2022/06/20 01:50:38;;;;;;;8.73;2.15;;;13.00;99.90;;;;;;5037048;28;20411;-68
2022/06/20 01:53:06;;;;;;;9.98;2.13;;;13.00;99.90;;;;;;5034633;28;20053;-68
2022/06/20 01:55:34;;;;;;;6.88;1.95;;;13.10;99.90;;;;;;5040543;28;20041;-68
2022/06/20 01:58:11;;;;;;;11.00;2.20;;;13.00;99.90;;;;;;5045440;28;20037;-69
2022/06/20 02:00:38;;;;;;;8.45;2.13;;;12.90;99.90;;;;;;5053470;28;20115;-69
2022/06/20 02:03:11;;;;;;;6.82;2.40;;;12.80;99.90;;;;;;5037991;28;20081;-69
2022/06/20 02:05:37;;;;;;;7.28;2.10;;;12.90;99.90;;;;;;5039057;28;20578;-69
2022/06/20 02:08:06;;;;;;;8.20;2.30;;;12.90;99.90;;;;;;5048258;28;20386;-69
2022/06/20 02:10:42;;;;;;;12.75;2.45;;;12.90;99.90;;;;;;5040582;28;20069;-69
2022/06/20 02:13:10;;;;;;;8.20;1.92;;;12.90;99.90;;;;;;5053506;28;20045;-70
2022/06/20 02:15:37;;;;;;;5.63;1.98;;;12.90;99.90;;;;;;5042087;28;20083;-69
2022/06/20 02:18:07;;;;;;;9.00;2.27;;;12.90;99.90;;;;;;5041673;28;20252;-69
2022/06/20 02:20:45;;;;;;;9.30;2.10;;;12.90;99.90;;;;;;5041869;28;20045;-70
2022/06/20 02:23:13;;;;;;;8.90;2.05;;;12.90;99.90;;;;;;5042113;28;20048;-69
2022/06/20 02:25:39;;;;;;;11.32;2.90;;;12.90;99.90;;;;;;5035262;28;20050;-70
2022/06/20 02:28:12;;;;;;;16.30;4.10;;;12.90;99.90;;;;;;5043940;28;20037;-69
2022/06/20 02:30:39;;;;;;;8.45;2.22;;;12.90;99.90;;;;;;5059017;28;20403;-69
2022/06/20 02:33:16;;;;;;;16.05;3.28;;;13.00;99.90;;;;;;5046256;28;20042;-71
2022/06/20 02:35:42;;;;;;;7.20;1.90;;;13.00;99.90;;;;;;5050970;28;20044;-69
2022/06/20 02:38:08;;;;;;;13.88;2.45;;;13.00;99.90;;;;;;5038377;28;20695;-69
2022/06/20 02:40:35;;;;;;;6.72;1.85;;;13.00;99.90;;;;;;5044597;28;20045;-69
2022/06/20 02:43:09;;;;;;;9.88;2.00;;;13.00;99.90;;;;;;5041820;28;20167;-69
2022/06/20 02:45:38;;;;;;;8.25;2.10;;;13.00;99.90;;;;;;5046739;28;20048;-70
2022/06/20 02:48:07;;;;;;;7.50;2.20;;;13.00;99.90;;;;;;5044117;28;20037;-69
2022/06/20 02:50:42;;;;;;;7.45;2.10;;;12.90;99.90;;;;;;5044938;28;20456;-69
2022/06/20 02:53:40;;;;;;;6.30;2.00;;;12.90;99.90;;;;;;5044905;28;20052;-70
2022/06/20 02:56:08;;;;;;;7.10;2.40;;;12.90;99.90;;;;;;5038106;28;20134;-69
2022/06/20 02:58:38;;;;;;;8.02;2.53;;;12.80;99.90;;;;;;5045637;28;20071;-70
2022/06/20 03:01:07;;;;;;;7.97;2.15;;;12.70;99.90;;;;;;5044402;28;20048;-69
2022/06/20 03:03:36;;;;;;;10.45;2.25;;;12.70;99.90;;;;;;5047223;28;20128;-70
2022/06/20 03:06:03;;;;;;;;;;;12.60;99.90;;;;;;5037384;28;20037;-70
2022/06/20 03:08:30;;;;;;;6.07;2.08;;;12.60;99.90;;;;;;5032020;28;19928;-70
2022/06/20 03:11:01;;;;;;;10.00;2.30;;;12.60;99.90;;;;;;5048673;28;20091;-69
2022/06/20 03:13:28;;;;;;;9.55;2.47;;;12.50;99.90;;;;;;5049915;28;20041;-70
2022/06/20 03:15:55;;;;;;;12.65;2.85;;;12.50;99.90;;;;;;5042030;28;20041;-70
2022/06/20 03:18:23;;;;;;;11.35;2.65;;;12.50;99.90;;;;;;5042968;28;20126;-70
2022/06/20 03:20:49;;;;;;;7.35;2.30;;;12.40;99.90;;;;;;5042168;28;20116;-68
2022/06/20 03:23:22;;;;;;;9.13;2.85;;;12.40;99.90;;;;;;5042354;28;20128;-69
2022/06/20 03:25:48;;;;;;;7.47;2.40;;;12.40;99.90;;;;;;5043015;28;20076;-69
2022/06/20 03:28:18;;;;;;;12.48;3.05;;;12.30;99.90;;;;;;5028592;28;20548;-68
2022/06/20 03:30:44;;;;;;;8.20;2.63;;;12.30;99.90;;;;;;5043724;28;20127;-69
2022/06/20 03:33:13;;;;;;;13.30;2.47;;;12.30;99.90;;;;;;5047499;28;20124;-69
2022/06/20 03:36:05;;;;;;;12.25;3.08;;;12.20;99.90;;;;;;5046344;28;20091;-68
2022/06/20 03:38:31;;;;;;;8.38;2.63;;;12.20;99.90;;;;;;5049487;28;20076;-68
2022/06/20 03:40:57;;;;;;;6.97;2.45;;;12.10;99.90;;;;;;5047218;28;20047;-68
2022/06/20 03:43:26;;;;;;;9.95;3.42;;;12.10;99.90;;;;;;5052786;28;20037;-68
2022/06/20 03:46:17;;;;;;;11.75;2.85;;;12.10;99.90;;;;;;5042098;28;20041;-69
2022/06/20 03:48:56;;;;;;;14.50;3.00;;;12.10;99.90;;;;;;5046901;28;20049;-68
2022/06/20 03:51:25;;;;;;;6.20;2.90;;;12.10;99.90;;;;;;5054870;28;20076;-68
2022/06/20 03:54:12;;;;;;;12.32;2.33;;;12.20;99.90;;;;;;5051329;28;20487;-69
2022/06/20 03:56:49;;;;;;;13.02;3.35;;;12.20;99.90;;;;;;5047277;28;20059;-68
2022/06/20 03:59:25;;;;;;;11.45;2.95;;;12.30;99.90;;;;;;5046463;28;20174;-69
2022/06/20 04:02:18;;;;;;;12.55;3.50;;;12.30;99.90;;;;;;5045990;28;20439;-68
2022/06/20 04:04:59;;;;;;;14.23;3.15;;;12.30;99.90;;;;;;5052003;28;20064;-69
2022/06/20 04:07:40;;;;;;;13.75;3.47;;;12.40;99.90;;;;;;5039133;28;20033;-68
2022/06/20 04:13:08;;;;;;;12.35;3.22;;;12.50;99.90;;;;;;5052222;28;20047;-69
2022/06/20 04:15:40;;;;;;;8.55;2.72;;;12.60;99.90;;;;;;5045665;28;20052;-69
2022/06/20 04:18:27;;;;;;;13.45;3.00;;;12.60;99.90;;;;;;5034948;28;20077;-70
2022/06/20 04:21:05;;;;;;;11.13;3.30;;;12.60;99.90;;;;;;5050027;28;20079;-70
2022/06/20 04:23:34;;;;;;;15.02;3.45;;;12.60;99.90;;;;;;5048308;28;20365;-69
2022/06/20 04:26:27;;;;;;;11.38;3.20;;;12.60;99.90;;;;;;5041050;28;20069;-69
2022/06/20 04:28:56;;;;;;;8.13;3.10;;;12.60;99.90;;;;;;5042717;28;20056;-69
2022/06/20 04:31:36;;;;;;;8.20;3.03;;;12.60;99.90;;;;;;5043617;28;20045;-70
2022/06/20 04:34:25;;;;;;;16.02;3.75;;;12.70;99.90;;;;;;5048140;28;20049;-69
2022/06/20 04:36:54;;;;;;;10.32;3.15;;;12.70;99.90;;;;;;5046977;28;20041;-69
2022/06/20 04:39:51;;;;;;;11.55;3.30;;;12.70;99.90;;;;;;5048171;28;20041;-69
2022/06/20 04:42:20;;;;;;;8.68;3.40;;;12.70;99.90;;;;;;5041272;28;20048;-69
2022/06/20 04:44:55;;;;;;;8.77;3.10;;;12.80;99.90;;;;;;5045182;28;20041;-70
2022/06/20 04:47:49;;;;;;;13.80;3.65;;;12.80;99.90;;;;;;5047516;28;20040;-69
2022/06/20 04:50:21;;;;;;;12.55;3.97;;;12.80;99.90;;;;;;5047011;28;20049;-69
2022/06/20 04:52:49;;;;;;;13.13;3.33;;;12.80;99.90;;;;;;5048109;28;20049;-70
2022/06/20 04:55:19;;;;;;;14.13;3.65;;;12.80;99.90;;;;;;5043813;28;20153;-69
2022/06/20 04:57:47;;;;;;;12.35;3.50;;;12.70;99.90;;;;;;5047384;28;20131;-70
2022/06/20 05:00:19;;;;;;;16.35;4.28;;;12.70;99.90;;;;;;5040461;28;20060;-69
2022/06/20 05:02:47;;;;;;;11.93;3.40;;;12.70;99.90;;;;;;5051044;28;20407;-70
2022/06/20 05:05:20;;;;;;;14.02;3.50;;;12.70;99.90;;;;;;5036463;28;20095;-69
2022/06/20 05:07:48;;;;;;;11.20;3.60;;;12.80;99.90;;;;;;5048186;28;20052;-68
2022/06/20 05:10:26;;;;;;;9.70;3.40;;;12.90;99.90;;;;;;5051874;28;20045;-69
2022/06/20 05:13:12;;;;;;;10.90;3.55;;;12.90;99.90;;;;;;5044897;28;20542;-70
2022/06/20 05:15:48;;;;;;;10.50;3.67;;;13.00;99.90;;;;;;5046335;28;20499;-69
2022/06/20 05:18:39;;;;;;;15.18;3.83;;;13.10;99.90;;;;;;5047154;28;20100;-69
2022/06/20 05:21:19;;;;;;;13.30;3.38;;;13.20;99.90;;;;;;5048913;28;20048;-69
2022/06/20 05:23:49;;;;;;;15.10;4.05;;;13.20;99.90;;;;;;5054639;28;20449;-69
2022/06/20 05:26:21;;;;;;;10.95;3.60;;;13.30;99.90;;;;;;5048948;28;20051;-69
2022/06/20 05:28:50;;;;;;;13.63;3.60;;;13.40;99.90;;;;;;5034410;28;20036;-70
2022/06/20 05:31:28;;;;;;;14.85;3.67;;;13.50;99.90;;;;;;5042848;28;20041;-69
2022/06/20 05:34:01;;;;;;;12.90;3.97;;;13.60;99.90;;;;;;5046048;28;20403;-70
2022/06/20 05:36:49;;;;;;;14.20;3.85;;;13.70;99.90;;;;;;5049474;28;20087;-69
2022/06/20 05:39:47;;;;;;;17.65;3.70;;;13.80;99.90;;;;;;5028519;28;20033;-68
2022/06/20 05:42:16;;;;;;;14.90;4.35;;;13.90;99.90;;;;;;5039916;28;20529;-70
2022/06/20 05:44:44;;;;;;;15.88;3.97;;;13.90;99.90;;;;;;5041721;28;20064;-69
2022/06/20 05:47:16;;;;;;;12.95;4.68;;;13.90;99.90;;;;;;5040511;28;20119;-69
2022/06/20 05:50:10;;;;;;;15.95;4.65;;;13.90;99.90;;;;;;5034728;28;20045;-68
2022/06/20 05:52:40;;;;;;;11.40;4.03;;;13.90;99.90;;;;;;5036270;28;20053;-69
2022/06/20 05:55:11;;;;;;;11.25;4.20;;;14.00;99.90;;;;;;5040140;28;20454;-70
2022/06/20 05:57:40;;;;;;;13.43;4.38;;;14.10;99.90;;;;;;5039113;28;20049;-69
2022/06/20 06:00:16;;;;;;;10.55;3.78;;;14.10;99.90;;;;;;5040034;28;20501;-67
2022/06/20 06:02:51;;;;;;;19.13;4.43;;;14.20;99.90;;;;;;5043639;28;20507;-69
2022/06/20 06:05:25;;;;;;;13.90;4.00;;;14.30;99.90;;;;;;5040820;28;20095;-69
2022/06/20 06:08:03;;;;;;;13.95;4.30;;;14.40;99.90;;;;;;5037001;28;20091;-69
2022/06/20 06:10:45;;;;;;;12.95;3.42;;;14.50;99.90;;;;;;5037625;28;20134;-70
2022/06/20 06:13:26;;;;;;;16.65;4.57;;;14.70;99.90;;;;;;5046591;28;20041;-70
2022/06/20 06:19:18;;;;;;;10.80;3.28;;;14.90;99.90;;;;;;5050614;28;20053;-72
2022/06/20 06:21:47;;;;;;;14.57;3.90;;;14.90;99.90;;;;;;5050107;28;20080;-69
2022/06/20 06:24:16;;;;;;;14.23;4.00;;;14.80;99.90;;;;;;5034015;28;20045;-70
2022/06/20 06:26:44;;;;;;;8.98;3.70;;;14.80;99.90;;;;;;5040177;28;20042;-70
2022/06/20 06:29:19;;;;;;;11.25;3.45;;;14.70;99.90;;;;;;5047418;28;20060;-70
2022/06/20 06:31:46;;;;;;;13.90;4.10;;;14.60;99.90;;;;;;5047500;28;20145;-70
2022/06/20 06:34:35;;;;;;;13.65;3.58;;;14.60;99.90;;;;;;5043536;28;20049;-71
2022/06/20 06:37:08;;;;;;;21.15;4.28;;;14.60;99.90;;;;;;5047165;28;20107;-70
2022/06/20 06:39:41;;;;;;;12.48;3.45;;;14.60;99.90;;;;;;5037878;28;20080;-69
2022/06/20 06:42:12;;;;;;;11.40;3.20;;;14.80;99.90;;;;;;5041108;28;20394;-69
2022/06/20 06:44:48;;;;;;;13.95;3.30;;;14.90;99.90;;;;;;5051340;28;20108;-69
2022/06/20 06:47:27;;;;;;;13.25;3.60;;;15.00;99.90;;;;;;5030138;28;20140;-69
2022/06/20 06:50:17;;;;;;;15.00;3.92;;;15.20;99.90;;;;;;5035905;28;20098;-68
2022/06/20 06:52:54;;;;;;;10.43;3.05;;;15.50;99.90;;;;;;5035663;28;20041;-69
2022/06/20 06:55:37;;;;;;;18.35;3.60;;;15.80;99.90;;;;;;5032363;28;20376;-69
2022/06/20 06:58:10;;;;;;;12.32;2.92;;;16.00;99.90;;;;;;5035215;28;20116;-69
2022/06/20 07:00:44;;;;;;;9.88;2.80;;;16.20;99.90;;;;;;5051966;28;20052;-69
2022/06/20 07:03:37;;;;;;;13.25;2.95;;;16.40;99.90;;;;;;5065992;28;20368;-69
2022/06/20 07:06:10;;;;;;;12.90;3.30;;;16.50;99.90;;;;;;5047390;28;20045;-71
2022/06/20 07:08:44;;;;;;;12.27;3.20;;;16.50;99.90;;;;;;5014565;28;20049;-70
2022/06/20 07:11:21;;;;;;;8.63;2.72;;;16.40;99.90;;;;;;5043148;28;20108;-70
2022/06/20 07:13:46;;;;;;;12.68;3.38;;;16.40;99.90;;;;;;5044723;28;20042;-69
2022/06/20 07:16:42;;;;;;;11.95;3.33;;;16.40;99.90;;;;;;5052331;28;20045;-68
2022/06/20 07:19:10;;;;;;;11.60;3.42;;;16.50;99.90;;;;;;5046932;28;20060;-69
2022/06/20 07:21:39;;;;;;;7.60;2.83;;;16.70;99.90;;;;;;5048775;28;20037;-69
2022/06/20 07:24:22;;;;;;;11.65;2.63;;;16.70;99.90;;;;;;5050917;28;20048;-69
2022/06/20 07:26:58;;;;;;;16.48;2.95;;;16.40;99.90;;;;;;5049824;28;20053;-70
2022/06/20 07:29:32;;;;;;;9.90;2.42;;;16.20;99.90;;;;;;5055137;28;20072;-70
2022/06/20 07:32:07;;;;;;;13.50;3.05;;;16.00;99.90;;;;;;5054429;28;20528;-66
2022/06/20 07:34:46;;;;;;;12.52;3.22;;;16.00;99.90;;;;;;5051679;28;20049;-69
2022/06/20 07:37:14;;;;;;;;;;;16.10;99.90;;;;;;5041955;28;20048;-71
2022/06/20 07:39:56;;;;;;;12.30;2.47;;;16.40;99.90;;;;;;5035763;28;19932;-69
2022/06/20 07:42:43;;;;;;;8.52;3.38;;;16.70;99.90;;;;;;5048388;28;20057;-69
2022/06/20 07:45:39;;;;;;;16.25;2.60;;;16.80;99.90;;;;;;5039531;28;20052;-68
2022/06/20 07:48:13;;;;;;;9.52;2.75;;;16.70;99.90;;;;;;5035192;28;20076;-71
2022/06/20 07:50:59;;;;;;;9.00;2.35;;;16.70;99.90;;;;;;5054340;28;20131;-69
2022/06/20 07:53:34;;;;;;;8.13;2.60;;;16.50;99.90;;;;;;5055155;28;20041;-70
2022/06/20 07:56:14;;;;;;;7.53;2.80;;;16.20;99.90;;;;;;5048599;28;20045;-69
2022/06/20 07:58:54;;;;;;;9.60;2.70;;;16.10;99.90;;;;;;5045334;28;20045;-71
2022/06/20 08:01:37;;;;;;;7.85;2.08;;;16.30;99.90;;;;;;5042669;28;20133;-70
2022/06/20 08:04:08;;;;;;;7.95;2.15;;;16.50;99.90;;;;;;5054163;28;20447;-70
2022/06/20 08:06:47;;;;;;;8.75;2.40;;;16.60;99.90;;;;;;5046920;28;20057;-70
2022/06/20 08:09:24;;;;;;;8.75;2.47;;;16.90;99.90;;;;;;5053688;28;20486;-70
2022/06/20 08:11:57;;;;;;;6.85;1.95;;;17.20;99.90;;;;;;5052070;28;20044;-70
2022/06/20 08:14:42;;;;;;;6.97;2.20;;;17.50;99.90;;;;;;5052749;28;20040;-70
2022/06/20 08:17:10;;;;;;;9.45;2.03;;;17.60;99.90;;;;;;5054693;28;20379;-69
2022/06/20 08:19:42;;;;;;;7.10;2.35;;;17.60;99.90;;;;;;5048067;28;20046;-69
2022/06/20 08:22:22;;;;;;;6.25;2.17;;;17.60;99.90;;;;;;5039442;28;20131;-68
2022/06/20 08:24:55;;;;;;;10.85;2.35;;;17.60;99.90;;;;;;5035695;28;20037;-69
2022/06/20 08:27:37;;;;;;;5.80;1.85;;;17.90;99.90;;;;;;5041423;28;20091;-68
2022/06/20 08:30:11;;;;;;;10.07;2.70;;;17.80;99.90;;;;;;5049887;28;20111;-69
2022/06/20 08:33:06;;;;;;;8.63;2.10;;;17.70;99.90;;;;;;5045310;28;20047;-69
2022/06/20 08:35:44;;;;;;;11.15;3.38;;;17.50;99.90;;;;;;5040226;28;20049;-68
2022/06/20 08:38:21;;;;;;;6.85;1.90;;;17.40;99.90;;;;;;5042059;28;20052;-68
2022/06/20 08:41:08;;;;;;;7.22;2.10;;;17.30;99.90;;;;;;5049031;28;20558;-69
2022/06/20 08:44:04;;;;;;;7.03;1.88;;;17.40;99.90;;;;;;5034997;28;20034;-68
2022/06/20 08:47:04;;;;;;;13.60;2.40;;;17.30;99.90;;;;;;5040475;28;20503;-67
2022/06/20 08:49:47;;;;;;;9.38;2.30;;;17.20;99.90;;;;;;5051077;28;20116;-67
2022/06/20 08:52:22;;;;;;;9.10;2.95;;;17.10;99.90;;;;;;5043945;28;20045;-69
2022/06/20 08:55:09;;;;;;;5.47;1.77;;;16.90;99.90;;;;;;5043549;28;20090;-67
2022/06/20 08:58:01;;;;;;;4.82;2.30;;;16.80;99.90;;;;;;5047732;28;20041;-67
2022/06/20 09:00:36;;;;;;;9.30;2.30;;;16.70;99.90;;;;;;5043573;28;20055;-68
2022/06/20 09:03:17;;;;;;;6.15;2.30;;;16.80;99.90;;;;;;5046682;28;20120;-67
2022/06/20 09:05:57;;;;;;;8.70;2.55;;;16.90;99.90;;;;;;5052240;28;20064;-67
2022/06/20 09:08:38;;;;;;;5.18;2.10;;;16.90;99.90;;;;;;5051208;28;20087;-68
2022/06/20 09:11:22;;;;;;;12.32;2.35;;;16.90;99.90;;;;;;5048456;28;20037;-67
2022/06/20 09:14:02;;;;;;;8.38;2.38;;;17.10;99.90;;;;;;5038384;28;20103;-68
2022/06/20 09:16:31;;;;;;;7.07;2.00;;;17.20;99.90;;;;;;5044008;28;20044;-67
2022/06/20 09:19:21;;;;;;;8.48;1.70;;;17.30;99.60;;;;;;5050103;28;20380;-70
2022/06/20 09:22:08;;;;;;;4.00;1.77;;;17.20;99.10;;;;;;5045501;28;20113;-68
2022/06/20 09:25:15;;;;;;;4.70;1.70;;;17.20;99.00;;;;;;5048762;28;20046;-67
2022/06/20 09:27:55;;;;;;;7.60;2.05;;;17.30;99.10;;;;;;5048860;28;20083;-69
2022/06/20 09:30:38;;;;;;;5.30;1.60;;;17.40;98.70;;;;;;5031813;28;20454;-69
2022/06/20 09:33:43;;;;;;;5.63;1.90;;;17.60;98.00;;;;;;5049662;28;20051;-69
2022/06/20 09:36:27;;;;;;;6.85;1.67;;;17.70;98.10;;;;;;5050248;28;20080;-67
2022/06/20 09:39:16;;;;;;;6.35;1.80;;;17.50;98.60;;;;;;5050319;28;20049;-69
2022/06/20 09:42:21;;;;;;;5.10;2.03;;;17.60;98.90;;;;;;5037096;28;20045;-68
2022/06/20 09:45:05;;;;;;;7.35;1.80;;;17.80;98.00;;;;;;5037154;28;20410;-69
2022/06/20 09:47:43;;;;;;;8.45;1.95;;;17.80;98.90;;;;;;5048146;28;20044;-68
2022/06/20 09:50:53;;;;;;;10.10;2.63;;;17.60;99.20;;;;;;5046188;28;20046;-68
2022/06/20 09:53:34;;;;;;;7.75;1.83;;;17.40;98.70;;;;;;5040454;28;20104;-68
2022/06/20 09:56:21;;;;;;;7.90;2.03;;;17.50;99.20;;;;;;5029446;28;20497;-69
2022/06/20 09:59:11;;;;;;;4.68;1.90;;;17.80;99.10;;;;;;5032498;28;20111;-70
2022/06/20 10:01:47;;;;;;;6.18;1.90;;;17.90;97.40;;;;;;5050466;28;20057;-70
2022/06/20 10:04:37;;;;;;;6.53;2.38;;;18.00;98.10;;;;;;5051035;28;20049;-69
2022/06/20 10:07:29;;;;;;;5.90;2.05;;;18.10;97.70;;;;;;5047934;28;20073;-70
2022/06/20 10:10:06;;;;;;;6.88;2.00;;;18.20;98.40;;;;;;5041518;28;20103;-69
2022/06/20 10:12:51;;;;;;;3.30;1.50;;;18.40;97.90;;;;;;5039973;28;20554;-68
2022/06/20 10:15:40;;;;;;;3.95;1.33;;;18.50;97.10;;;;;;5051899;28;20072;-68
2022/06/20 10:18:42;;;;;;;5.55;1.65;;;18.40;94.90;;;;;;5048458;28;20045;-68
2022/06/20 10:21:26;;;;;;;8.15;1.90;;;18.30;96.70;;;;;;5038192;28;20041;-68
2022/06/20 10:24:05;;;;;;;8.90;1.98;;;18.40;96.50;;;;;;5052180;28;20552;-68
2022/06/20 10:26:36;;;;;;;;;;;18.50;97.10;;;;;;5051931;28;20045;-69
2022/06/20 10:29:10;;;;;;;7.50;2.30;;;18.40;97.10;;;;;;5044839;28;19928;-69
2022/06/20 10:31:46;;;;;;;5.93;2.10;;;18.50;97.30;;;;;;5040030;28;20064;-68
2022/06/20 10:34:49;;;;;;;8.20;1.75;;;18.50;97.20;;;;;;5062316;28;20510;-69
2022/06/20 10:37:23;;;;;;;4.13;1.83;;;18.50;95.50;;;;;;5048900;28;20080;-67
2022/06/20 10:39:49;;;;;;;6.78;1.65;;;18.70;95.90;;;;;;5031545;28;20041;-67
2022/06/20 10:42:33;;;;;;;10.45;2.55;;;18.90;95.30;;;;;;5042638;28;20041;-66
2022/06/20 10:45:31;;;;;;;6.55;1.83;;;18.90;95.10;;;;;;5045922;28;20059;-67
2022/06/20 10:48:31;;;;;;;7.75;2.00;;;19.10;95.80;;;;;;5055955;28;20510;-66
2022/06/20 10:51:14;;;;;;;9.68;2.15;;;19.40;95.90;;;;;;5043755;28;20064;-67
2022/06/20 10:54:14;;;;;;;4.18;1.80;;;19.60;94.90;;;;;;5047381;28;20053;-68
2022/06/20 10:56:46;;;;;;;10.40;2.13;;;19.70;94.90;;;;;;5049720;28;20490;-68
2022/06/20 10:59:36;;;;;;;8.57;2.17;;;19.30;94.20;;;;;;5043886;28;20048;-67
2022/06/20 11:02:20;;;;;;;8.05;1.55;;;19.20;95.80;;;;;;5053995;28;20056;-68
2022/06/20 11:05:07;;;;;;;6.72;1.98;;;19.10;94.40;;;;;;5055628;28;20053;-68
2022/06/20 11:07:55;;;;;;;8.82;2.35;;;19.20;94.90;;;;;;5036011;28;20049;-66
2022/06/20 11:10:45;;;;;;;6.07;1.67;;;19.20;94.10;;;;;;5035819;28;20529;-67
2022/06/20 11:13:36;;;;;;;3.80;1.83;;;19.00;93.80;;;;;;5036090;28;20172;-67
2022/06/20 11:16:20;;;;;;;8.98;2.00;;;19.00;93.10;;;;;;5035736;28;20049;-67
2022/06/20 11:19:23;;;;;;;8.15;1.83;;;19.10;93.40;;;;;;5051724;28;20483;-66
2022/06/20 11:22:04;;;;;;;3.10;1.40;;;19.10;93.20;;;;;;5035884;28;20048;-67
2022/06/20 11:24:57;;;;;;;5.50;1.83;;;19.10;93.50;;;;;;5033889;28;20056;-68
2022/06/20 11:27:28;;;;;;;5.05;1.85;;;19.20;94.30;;;;;;5035663;28;20045;-67
2022/06/20 11:30:05;;;;;;;6.25;1.90;;;19.50;93.70;;;;;;5035543;28;20042;-68
2022/06/20 11:32:38;;;;;;;3.60;1.75;;;19.60;94.00;;;;;;5042813;28;20059;-68
2022/06/20 11:35:34;;;;;;;3.17;1.40;;;19.70;93.30;;;;;;5055402;28;20045;-67
2022/06/20 11:38:25;;;;;;;4.47;1.85;;;19.80;92.60;;;;;;5055447;28;20119;-67
2022/06/20 11:41:01;;;;;;;7.70;2.10;;;19.80;92.50;;;;;;5044327;28;20081;-67
2022/06/20 11:43:41;;;;;;;6.35;1.83;;;19.90;92.40;;;;;;5034988;28;20057;-67
2022/06/20 11:46:20;;;;;;;12.93;2.35;;;20.00;92.00;;;;;;5033761;28;20041;-67
2022/06/20 11:49:10;;;;;;;5.78;2.17;;;19.80;92.30;;;;;;5036754;28;20081;-68
2022/06/20 11:51:45;;;;;;;7.82;1.70;;;19.60;93.20;;;;;;5055283;28;20060;-68
2022/06/20 11:54:36;;;;;;;6.72;2.28;;;19.50;93.20;;;;;;5054978;28;20399;-67
2022/06/20 11:57:24;;;;;;;6.05;2.05;;;19.30;93.50;;;;;;5048273;28;20431;-66
2022/06/20 11:59:59;;;;;;;10.15;2.28;;;19.00;95.10;;;;;;5054744;28;20045;-66
2022/06/20 12:03:05;;;;;;;7.57;1.95;;;18.70;97.40;;;;;;5037888;28;20076;-67
2022/06/20 12:05:44;;;;;;;5.95;1.80;;;18.30;96.80;;;;;;5060719;28;20061;-66
2022/06/20 12:08:27;;;;;;;8.18;2.22;;;18.10;97.10;;;;;;5073836;28;20091;-67
2022/06/20 12:11:00;;;;;;;8.10;2.22;;;18.30;97.30;;;;;;5073763;28;20036;-67
2022/06/20 12:14:00;;;;;;;8.85;1.90;;;18.60;97.50;;;;;;5066132;28;20487;-68
2022/06/20 12:16:34;;;;;;;;;;;19.00;94.80;;;;;;5035072;28;20048;-67
2022/06/20 12:24:46;;;;;;;9.00;1.63;;;18.90;94.20;;;;;;5054582;28;20052;-67
2022/06/20 12:27:16;;;;;;;4.90;1.98;;;19.10;94.10;;;;;;5064369;28;20064;-68
2022/06/20 12:29:43;;;;;;;6.80;1.88;;;19.20;93.70;;;;;;5049409;28;20077;-66
2022/06/20 12:32:19;;;;;;;16.13;2.35;;;19.10;93.80;;;;;;5034406;28;20095;-66
2022/06/20 12:35:05;;;;;;;5.97;1.98;;;19.00;94.50;;;;;;5052126;28;20084;-67
2022/06/20 12:37:39;;;;;;;5.32;1.98;;;18.70;95.60;;;;;;5054344;28;20056;-67
2022/06/20 12:40:08;;;;;;;7.45;2.42;;;18.40;96.30;;;;;;5053010;28;20045;-67
2022/06/20 12:43:00;;;;;;;7.65;2.03;;;18.60;96.80;;;;;;5054251;28;20128;-67
2022/06/20 12:45:38;;;;;;;6.28;2.13;;;18.60;96.00;;;;;;5051334;28;20143;-67
2022/06/20 12:48:19;;;;;;;10.77;2.38;;;18.50;96.20;;;;;;5033789;28;20037;-67
2022/06/20 12:50:55;;;;;;;8.57;2.00;;;18.40;97.10;;;;;;5032896;28;20510;-68
2022/06/20 12:53:57;;;;;;;7.88;2.30;;;18.30;97.20;;;;;;5034326;28;20124;-67
2022/06/20 12:56:47;;;;;;;9.10;2.05;;;18.20;97.60;;;;;;5047432;28;20049;-68
2022/06/20 12:59:48;;;;;;;8.73;2.17;;;18.10;96.80;;;;;;5053913;28;20098;-68
2022/06/20 13:02:38;;;;;;;7.00;1.92;;;18.10;96.90;;;;;;5051127;28;20041;-68
2022/06/20 13:05:36;;;;;;;7.18;2.67;;;18.00;97.60;;;;;;5048785;28;20053;-67
2022/06/20 13:08:25;;;;;;;6.22;2.53;;;17.80;98.20;;;;;;5039559;28;20049;-68
2022/06/20 13:11:19;;;;;;;9.70;2.60;;;17.70;98.70;;;;;;5033684;28;20044;-67
2022/06/20 13:14:12;;;;;;;9.50;2.50;;;17.50;98.30;;;;;;5033968;28;20284;-66
2022/06/20 13:16:59;;;;;;;9.10;2.80;;;17.30;98.60;;;;;;5048787;28;20145;-67
2022/06/20 13:19:44;;;;;;;10.05;2.30;;;17.40;99.30;;;;;;5041425;28;20135;-65
2022/06/20 13:22:41;;;;;;;4.22;1.98;;;17.50;99.20;;;;;;5052206;28;20095;-67
2022/06/20 13:25:48;;;;;;;11.75;3.35;;;17.50;98.90;;;;;;5052985;28;20041;-67
2022/06/20 13:28:32;;;;;;;11.15;2.38;;;17.60;98.90;;;;;;5064181;28;20418;-67
2022/06/20 13:31:18;;;;;;;9.93;2.53;;;17.60;98.60;;;;;;5055504;28;20181;-67
2022/06/20 13:34:16;;;;;;;7.60;2.30;;;17.60;99.00;;;;;;5047499;28;20090;-67
2022/06/20 13:37:03;;;;;;;7.68;2.10;;;18.10;98.40;;;;;;5040302;28;20087;-68
2022/06/20 13:39:57;;;;;;;9.55;2.22;;;18.50;97.60;;;;;;5033111;28;20426;-66
2022/06/20 13:42:27;;;;;;;8.00;2.33;;;18.60;96.30;;;;;;5039410;28;20038;-68
2022/06/20 13:45:13;;;;;;;10.63;2.75;;;18.50;96.40;;;;;;5050483;28;20115;-70
2022/06/20 13:48:01;;;;;;;7.43;2.28;;;18.50;96.80;;;;;;5045409;28;20045;-67
2022/06/20 13:50:41;;;;;;;7.95;2.00;;;18.20;97.10;;;;;;5041439;28;20045;-67
2022/06/20 13:53:25;;;;;;;4.82;2.20;;;18.20;97.50;;;;;;5032650;28;20395;-66